sensor_id;sensor_type;location;lat;lon;timestamp;temperature;humidity
79491;SHT31;73788;53.048;18.472;2023-11-21T00:00:53;1.08;87.00
79491;SHT31;73788;53.048;18.472;2023-11-21T00:03:37;1.10;87.00
79491;SHT31;73788;53.048;18.472;2023-11-21T00:06:04;1.08;87.00
79491;SHT31;73788;53.048;18.472;2023-11-21T00:08:35;1.02;87.00
79491;SHT31;73788;53.048;18.472;2023-11-21T00:11:03;0.97;87.00
79491;SHT31;73788;53.048;18.472;2023-11-21T00:13:32;0.95;87.00
79491;SHT31;73788;53.048;18.472;2023-11-21T00:15:59;0.97;87.00
79491;SHT31;73788;53.048;18.472;2023-11-21T00:18:26;0.98;87.00
79491;SHT31;73788;53.048;18.472;2023-11-21T00:20:53;0.92;86.99
79491;SHT31;73788;53.048;18.472;2023-11-21T00:23:21;0.92;87.00
79491;SHT31;73788;53.048;18.472;2023-11-21T00:25:48;0.92;87.00
79491;SHT31;73788;53.048;18.472;2023-11-21T00:28:15;0.92;87.00
79491;SHT31;73788;53.048;18.472;2023-11-21T00:30:42;0.88;87.00
79491;SHT31;73788;53.048;18.472;2023-11-21T00:33:09;0.87;87.00
79491;SHT31;73788;53.048;18.472;2023-11-21T00:35:37;0.92;87.00
79491;SHT31;73788;53.048;18.472;2023-11-21T00:38:04;0.95;87.00
79491;SHT31;73788;53.048;18.472;2023-11-21T00:40:31;0.97;87.00
79491;SHT31;73788;53.048;18.472;2023-11-21T00:42:58;0.93;87.00
79491;SHT31;73788;53.048;18.472;2023-11-21T00:45:26;0.91;87.00
79491;SHT31;73788;53.048;18.472;2023-11-21T00:47:53;0.90;87.00
79491;SHT31;73788;53.048;18.472;2023-11-21T00:50:21;0.94;87.00
79491;SHT31;73788;53.048;18.472;2023-11-21T00:52:48;0.95;87.00
79491;SHT31;73788;53.048;18.472;2023-11-21T00:55:16;0.89;87.00
79491;SHT31;73788;53.048;18.472;2023-11-21T00:57:44;0.84;87.00
79491;SHT31;73788;53.048;18.472;2023-11-21T01:00:11;0.84;87.00
79491;SHT31;73788;53.048;18.472;2023-11-21T01:02:44;0.86;87.00
79491;SHT31;73788;53.048;18.472;2023-11-21T01:05:11;0.87;87.00
79491;SHT31;73788;53.048;18.472;2023-11-21T01:07:38;0.88;87.00
79491;SHT31;73788;53.048;18.472;2023-11-21T01:10:06;0.83;87.00
79491;SHT31;73788;53.048;18.472;2023-11-21T01:12:35;0.77;86.99
79491;SHT31;73788;53.048;18.472;2023-11-21T01:15:04;0.78;87.00
79491;SHT31;73788;53.048;18.472;2023-11-21T01:17:38;0.78;87.00
79491;SHT31;73788;53.048;18.472;2023-11-21T01:20:07;0.77;87.00
79491;SHT31;73788;53.048;18.472;2023-11-21T01:22:38;0.76;87.00
79491;SHT31;73788;53.048;18.472;2023-11-21T01:25:06;0.77;87.00
79491;SHT31;73788;53.048;18.472;2023-11-21T01:27:34;0.82;87.00
79491;SHT31;73788;53.048;18.472;2023-11-21T01:30:01;0.83;87.00
79491;SHT31;73788;53.048;18.472;2023-11-21T01:32:31;0.81;87.00
79491;SHT31;73788;53.048;18.472;2023-11-21T01:34:58;0.79;87.00
79491;SHT31;73788;53.048;18.472;2023-11-21T01:37:26;0.76;87.00
79491;SHT31;73788;53.048;18.472;2023-11-21T01:39:54;0.80;87.00
79491;SHT31;73788;53.048;18.472;2023-11-21T01:42:22;0.80;87.00
79491;SHT31;73788;53.048;18.472;2023-11-21T01:44:49;0.82;87.00
79491;SHT31;73788;53.048;18.472;2023-11-21T01:47:17;0.83;87.00
79491;SHT31;73788;53.048;18.472;2023-11-21T01:49:44;0.79;87.00
79491;SHT31;73788;53.048;18.472;2023-11-21T01:52:12;0.80;87.01
79491;SHT31;73788;53.048;18.472;2023-11-21T01:54:41;0.81;87.00
79491;SHT31;73788;53.048;18.472;2023-11-21T01:57:08;0.86;87.01
79491;SHT31;73788;53.048;18.472;2023-11-21T01:59:36;0.87;87.00
79491;SHT31;73788;53.048;18.472;2023-11-21T02:02:07;0.85;87.02
79491;SHT31;73788;53.048;18.472;2023-11-21T02:04:36;0.80;87.00
79491;SHT31;73788;53.048;18.472;2023-11-21T02:07:03;0.76;87.00
79491;SHT31;73788;53.048;18.472;2023-11-21T02:09:34;0.79;87.01
79491;SHT31;73788;53.048;18.472;2023-11-21T02:12:04;0.78;87.00
79491;SHT31;73788;53.048;18.472;2023-11-21T02:14:32;0.75;87.00
79491;SHT31;73788;53.048;18.472;2023-11-21T02:16:59;0.69;87.01
79491;SHT31;73788;53.048;18.472;2023-11-21T02:19:27;0.72;87.02
79491;SHT31;73788;53.048;18.472;2023-11-21T02:21:56;0.74;87.02
79491;SHT31;73788;53.048;18.472;2023-11-21T02:24:31;0.73;87.00
79491;SHT31;73788;53.048;18.472;2023-11-21T02:26:59;0.69;87.01
79491;SHT31;73788;53.048;18.472;2023-11-21T02:29:26;0.68;87.00
79491;SHT31;73788;53.048;18.472;2023-11-21T02:31:56;0.71;87.00
79491;SHT31;73788;53.048;18.472;2023-11-21T02:34:24;0.72;87.00
79491;SHT31;73788;53.048;18.472;2023-11-21T02:36:51;0.73;87.00
79491;SHT31;73788;53.048;18.472;2023-11-21T02:39:18;0.75;87.00
79491;SHT31;73788;53.048;18.472;2023-11-21T02:41:48;0.70;87.00
79491;SHT31;73788;53.048;18.472;2023-11-21T02:44:16;0.70;87.01
79491;SHT31;73788;53.048;18.472;2023-11-21T02:46:43;0.76;87.01
79491;SHT31;73788;53.048;18.472;2023-11-21T02:49:10;0.71;87.00
79491;SHT31;73788;53.048;18.472;2023-11-21T02:51:38;0.65;87.00
79491;SHT31;73788;53.048;18.472;2023-11-21T02:54:05;0.65;87.00
79491;SHT31;73788;53.048;18.472;2023-11-21T02:56:33;0.66;87.00
79491;SHT31;73788;53.048;18.472;2023-11-21T02:59:00;0.66;87.01
79491;SHT31;73788;53.048;18.472;2023-11-21T03:01:28;0.59;87.00
79491;SHT31;73788;53.048;18.472;2023-11-21T03:03:55;0.57;87.00
79491;SHT31;73788;53.048;18.472;2023-11-21T03:06:23;0.59;87.00
79491;SHT31;73788;53.048;18.472;2023-11-21T03:08:50;0.57;87.00
79491;SHT31;73788;53.048;18.472;2023-11-21T03:11:17;0.56;87.01
79491;SHT31;73788;53.048;18.472;2023-11-21T03:13:44;0.53;87.00
79491;SHT31;73788;53.048;18.472;2023-11-21T03:16:12;0.50;87.00
79491;SHT31;73788;53.048;18.472;2023-11-21T03:18:39;0.51;87.00
79491;SHT31;73788;53.048;18.472;2023-11-21T03:21:07;0.53;87.00
79491;SHT31;73788;53.048;18.472;2023-11-21T03:23:37;0.50;87.00
79491;SHT31;73788;53.048;18.472;2023-11-21T03:26:04;0.49;87.00
79491;SHT31;73788;53.048;18.472;2023-11-21T03:28:34;0.44;87.00
79491;SHT31;73788;53.048;18.472;2023-11-21T03:31:01;0.43;87.00
79491;SHT31;73788;53.048;18.472;2023-11-21T03:33:28;0.49;87.01
79491;SHT31;73788;53.048;18.472;2023-11-21T03:35:58;0.49;87.00
79491;SHT31;73788;53.048;18.472;2023-11-21T03:38:26;0.44;87.00
79491;SHT31;73788;53.048;18.472;2023-11-21T03:40:54;0.43;87.00
79491;SHT31;73788;53.048;18.472;2023-11-21T03:43:21;0.47;87.00
79491;SHT31;73788;53.048;18.472;2023-11-21T03:45:48;0.47;87.00
79491;SHT31;73788;53.048;18.472;2023-11-21T03:48:15;0.47;87.00
79491;SHT31;73788;53.048;18.472;2023-11-21T03:50:42;0.41;87.00
79491;SHT31;73788;53.048;18.472;2023-11-21T03:53:09;0.37;87.00
79491;SHT31;73788;53.048;18.472;2023-11-21T03:55:37;0.38;87.00
79491;SHT31;73788;53.048;18.472;2023-11-21T03:58:04;0.40;87.00
79491;SHT31;73788;53.048;18.472;2023-11-21T04:00:31;0.38;87.00
79491;SHT31;73788;53.048;18.472;2023-11-21T04:02:58;0.35;87.00
79491;SHT31;73788;53.048;18.472;2023-11-21T04:05:25;0.33;87.00
79491;SHT31;73788;53.048;18.472;2023-11-21T04:07:52;0.34;87.00
79491;SHT31;73788;53.048;18.472;2023-11-21T04:10:19;0.36;87.00
79491;SHT31;73788;53.048;18.472;2023-11-21T04:12:47;0.34;87.00
79491;SHT31;73788;53.048;18.472;2023-11-21T04:15:14;0.32;87.00
79491;SHT31;73788;53.048;18.472;2023-11-21T04:17:42;0.32;87.00
79491;SHT31;73788;53.048;18.472;2023-11-21T04:20:09;0.36;87.00
79491;SHT31;73788;53.048;18.472;2023-11-21T04:22:40;0.32;87.00
79491;SHT31;73788;53.048;18.472;2023-11-21T04:25:10;0.26;87.00
79491;SHT31;73788;53.048;18.472;2023-11-21T04:27:41;0.26;87.00
79491;SHT31;73788;53.048;18.472;2023-11-21T04:30:10;0.28;87.00
79491;SHT31;73788;53.048;18.472;2023-11-21T04:32:39;0.25;87.00
79491;SHT31;73788;53.048;18.472;2023-11-21T04:35:06;0.21;87.00
79491;SHT31;73788;53.048;18.472;2023-11-21T04:37:35;0.15;87.00
79491;SHT31;73788;53.048;18.472;2023-11-21T04:40:02;0.12;87.00
79491;SHT31;73788;53.048;18.472;2023-11-21T04:42:34;0.11;87.00
79491;SHT31;73788;53.048;18.472;2023-11-21T04:45:06;0.12;87.00
79491;SHT31;73788;53.048;18.472;2023-11-21T04:47:38;0.11;86.99
79491;SHT31;73788;53.048;18.472;2023-11-21T04:50:05;0.06;87.00
79491;SHT31;73788;53.048;18.472;2023-11-21T04:52:33;0.03;87.00
79491;SHT31;73788;53.048;18.472;2023-11-21T04:55:00;0.07;87.00
79491;SHT31;73788;53.048;18.472;2023-11-21T04:57:28;0.10;87.00
79491;SHT31;73788;53.048;18.472;2023-11-21T04:59:55;0.10;87.00
79491;SHT31;73788;53.048;18.472;2023-11-21T05:02:22;0.05;87.00
79491;SHT31;73788;53.048;18.472;2023-11-21T05:04:49;0.02;86.98
79491;SHT31;73788;53.048;18.472;2023-11-21T05:07:17;0.02;86.99
79491;SHT31;73788;53.048;18.472;2023-11-21T05:09:44;0.04;86.98
79491;SHT31;73788;53.048;18.472;2023-11-21T05:12:12;0.04;86.99
79491;SHT31;73788;53.048;18.472;2023-11-21T05:14:41;-0.01;86.99
79491;SHT31;73788;53.048;18.472;2023-11-21T05:17:08;-0.03;86.99
79491;SHT31;73788;53.048;18.472;2023-11-21T05:19:35;-0.01;86.97
79491;SHT31;73788;53.048;18.472;2023-11-21T05:22:02;0.04;86.99
79491;SHT31;73788;53.048;18.472;2023-11-21T05:24:30;0.03;86.99
79491;SHT31;73788;53.048;18.472;2023-11-21T05:26:57;-0.01;86.99
79491;SHT31;73788;53.048;18.472;2023-11-21T05:29:24;-0.04;86.99
79491;SHT31;73788;53.048;18.472;2023-11-21T05:31:52;-0.01;86.98
79491;SHT31;73788;53.048;18.472;2023-11-21T05:34:19;-0.02;86.99
79491;SHT31;73788;53.048;18.472;2023-11-21T05:36:47;-0.06;86.99
79491;SHT31;73788;53.048;18.472;2023-11-21T05:39:14;-0.08;86.94
79491;SHT31;73788;53.048;18.472;2023-11-21T05:41:43;-0.05;86.98
79491;SHT31;73788;53.048;18.472;2023-11-21T05:44:11;-0.06;86.97
79491;SHT31;73788;53.048;18.472;2023-11-21T05:46:38;-0.07;86.98
79491;SHT31;73788;53.048;18.472;2023-11-21T05:49:06;-0.13;86.93
79491;SHT31;73788;53.048;18.472;2023-11-21T05:51:34;-0.16;86.95
79491;SHT31;73788;53.048;18.472;2023-11-21T05:54:01;-0.12;86.95
79491;SHT31;73788;53.048;18.472;2023-11-21T05:56:29;-0.10;86.92
79491;SHT31;73788;53.048;18.472;2023-11-21T05:58:56;-0.13;86.96
79491;SHT31;73788;53.048;18.472;2023-11-21T06:01:23;-0.13;86.92
79491;SHT31;73788;53.048;18.472;2023-11-21T06:03:50;-0.12;86.94
79491;SHT31;73788;53.048;18.472;2023-11-21T06:06:17;-0.09;86.95
79491;SHT31;73788;53.048;18.472;2023-11-21T06:08:46;-0.09;86.92
79491;SHT31;73788;53.048;18.472;2023-11-21T06:11:13;-0.13;86.92
79491;SHT31;73788;53.048;18.472;2023-11-21T06:13:40;-0.13;86.94
79491;SHT31;73788;53.048;18.472;2023-11-21T06:16:08;-0.09;86.96
79491;SHT31;73788;53.048;18.472;2023-11-21T06:18:36;-0.08;86.93
79491;SHT31;73788;53.048;18.472;2023-11-21T06:21:03;-0.13;86.93
79491;SHT31;73788;53.048;18.472;2023-11-21T06:23:31;-0.16;86.92
79491;SHT31;73788;53.048;18.472;2023-11-21T06:25:58;-0.17;86.92
79491;SHT31;73788;53.048;18.472;2023-11-21T06:28:25;-0.15;86.92
79491;SHT31;73788;53.048;18.472;2023-11-21T06:30:52;-0.14;86.90
79491;SHT31;73788;53.048;18.472;2023-11-21T06:33:19;-0.14;86.91
79491;SHT31;73788;53.048;18.472;2023-11-21T06:35:48;-0.19;86.92
79491;SHT31;73788;53.048;18.472;2023-11-21T06:38:16;-0.19;86.91
79491;SHT31;73788;53.048;18.472;2023-11-21T06:40:44;-0.13;86.92
79491;SHT31;73788;53.048;18.472;2023-11-21T06:43:12;-0.15;86.92
79491;SHT31;73788;53.048;18.472;2023-11-21T06:45:40;-0.18;86.91
79491;SHT31;73788;53.048;18.472;2023-11-21T06:48:07;-0.18;86.91
79491;SHT31;73788;53.048;18.472;2023-11-21T06:50:35;-0.14;86.90
79491;SHT31;73788;53.048;18.472;2023-11-21T06:53:02;-0.10;86.91
79491;SHT31;73788;53.048;18.472;2023-11-21T06:55:30;-0.13;86.90
79491;SHT31;73788;53.048;18.472;2023-11-21T06:57:58;-0.16;86.90
79491;SHT31;73788;53.048;18.472;2023-11-21T07:00:26;-0.16;86.90
79491;SHT31;73788;53.048;18.472;2023-11-21T07:02:56;-0.12;86.90
79491;SHT31;73788;53.048;18.472;2023-11-21T07:05:24;-0.09;86.90
79491;SHT31;73788;53.048;18.472;2023-11-21T07:07:51;-0.13;86.90
79491;SHT31;73788;53.048;18.472;2023-11-21T07:10:20;-0.13;86.91
79491;SHT31;73788;53.048;18.472;2023-11-21T07:12:47;-0.08;86.90
79491;SHT31;73788;53.048;18.472;2023-11-21T07:15:14;-0.04;86.90
79491;SHT31;73788;53.048;18.472;2023-11-21T07:17:41;-0.02;86.90
79491;SHT31;73788;53.048;18.472;2023-11-21T07:20:10;-0.06;86.90
79491;SHT31;73788;53.048;18.472;2023-11-21T07:22:38;-0.09;86.90
79491;SHT31;73788;53.048;18.472;2023-11-21T07:25:05;-0.08;86.90
79491;SHT31;73788;53.048;18.472;2023-11-21T07:27:33;-0.03;86.90
79491;SHT31;73788;53.048;18.472;2023-11-21T07:30:02;-0.01;86.90
79491;SHT31;73788;53.048;18.472;2023-11-21T07:32:31;-0.02;86.90
79491;SHT31;73788;53.048;18.472;2023-11-21T07:34:58;-0.02;86.90
79491;SHT31;73788;53.048;18.472;2023-11-21T07:37:27;-0.03;86.90
79491;SHT31;73788;53.048;18.472;2023-11-21T07:39:55;-0.04;86.90
79491;SHT31;73788;53.048;18.472;2023-11-21T07:42:23;0.01;86.90
79491;SHT31;73788;53.048;18.472;2023-11-21T07:44:52;-0.03;86.90
79491;SHT31;73788;53.048;18.472;2023-11-21T07:47:19;-0.06;86.89
79491;SHT31;73788;53.048;18.472;2023-11-21T07:49:47;-0.06;86.90
79491;SHT31;73788;53.048;18.472;2023-11-21T07:52:14;-0.04;86.90
79491;SHT31;73788;53.048;18.472;2023-11-21T07:54:44;0.03;86.90
79491;SHT31;73788;53.048;18.472;2023-11-21T07:57:11;0.03;86.90
79491;SHT31;73788;53.048;18.472;2023-11-21T07:59:40;0.00;86.90
79491;SHT31;73788;53.048;18.472;2023-11-21T08:02:07;-0.02;86.90
79491;SHT31;73788;53.048;18.472;2023-11-21T08:04:34;-0.01;86.90
79491;SHT31;73788;53.048;18.472;2023-11-21T08:07:02;0.03;86.89
79491;SHT31;73788;53.048;18.472;2023-11-21T08:09:30;0.00;86.90
79491;SHT31;73788;53.048;18.472;2023-11-21T08:11:57;0.00;86.90
79491;SHT31;73788;53.048;18.472;2023-11-21T08:14:27;0.05;86.89
79491;SHT31;73788;53.048;18.472;2023-11-21T08:16:54;0.14;86.89
79491;SHT31;73788;53.048;18.472;2023-11-21T08:19:24;0.27;86.90
79491;SHT31;73788;53.048;18.472;2023-11-21T08:21:54;0.30;86.90
79491;SHT31;73788;53.048;18.472;2023-11-21T08:24:21;0.29;86.89
79491;SHT31;73788;53.048;18.472;2023-11-21T08:26:49;0.39;86.90
79491;SHT31;73788;53.048;18.472;2023-11-21T08:29:17;0.55;86.90
79491;SHT31;73788;53.048;18.472;2023-11-21T08:31:44;0.57;86.90
79491;SHT31;73788;53.048;18.472;2023-11-21T08:34:13;0.57;86.89
79491;SHT31;73788;53.048;18.472;2023-11-21T08:36:42;0.57;86.89
79491;SHT31;73788;53.048;18.472;2023-11-21T08:39:09;0.62;86.90
79491;SHT31;73788;53.048;18.472;2023-11-21T08:41:36;0.68;86.89
79491;SHT31;73788;53.048;18.472;2023-11-21T08:44:04;0.68;86.90
79491;SHT31;73788;53.048;18.472;2023-11-21T08:46:34;0.70;86.89
79491;SHT31;73788;53.048;18.472;2023-11-21T08:49:03;0.65;86.89
79491;SHT31;73788;53.048;18.472;2023-11-21T08:51:30;0.65;86.88
79491;SHT31;73788;53.048;18.472;2023-11-21T08:53:58;0.72;86.89
79491;SHT31;73788;53.048;18.472;2023-11-21T08:56:27;0.80;86.89
79491;SHT31;73788;53.048;18.472;2023-11-21T08:58:54;0.84;86.90
79491;SHT31;73788;53.048;18.472;2023-11-21T09:01:21;0.92;86.90
79491;SHT31;73788;53.048;18.472;2023-11-21T09:03:49;1.03;86.90
79491;SHT31;73788;53.048;18.472;2023-11-21T09:06:16;0.99;86.89
79491;SHT31;73788;53.048;18.472;2023-11-21T09:08:44;0.91;86.87
79491;SHT31;73788;53.048;18.472;2023-11-21T09:11:11;0.88;86.89
79491;SHT31;73788;53.048;18.472;2023-11-21T09:13:38;0.86;86.85
79491;SHT31;73788;53.048;18.472;2023-11-21T09:16:05;0.91;86.81
79491;SHT31;73788;53.048;18.472;2023-11-21T09:18:33;0.96;86.85
79491;SHT31;73788;53.048;18.472;2023-11-21T09:21:00;0.99;86.81
79491;SHT31;73788;53.048;18.472;2023-11-21T09:23:27;1.05;86.83
79491;SHT31;73788;53.048;18.472;2023-11-21T09:25:55;1.08;86.83
79491;SHT31;73788;53.048;18.472;2023-11-21T09:28:23;1.14;86.80
79491;SHT31;73788;53.048;18.472;2023-11-21T09:30:50;1.23;86.83
79491;SHT31;73788;53.048;18.472;2023-11-21T09:33:18;1.22;86.81
79491;SHT31;73788;53.048;18.472;2023-11-21T09:35:45;1.24;86.81
79491;SHT31;73788;53.048;18.472;2023-11-21T09:38:12;1.31;86.80
79491;SHT31;73788;53.048;18.472;2023-11-21T09:40:39;1.28;86.80
79491;SHT31;73788;53.048;18.472;2023-11-21T09:43:08;1.21;86.80
79491;SHT31;73788;53.048;18.472;2023-11-21T09:45:47;1.20;86.80
79491;SHT31;73788;53.048;18.472;2023-11-21T09:48:20;1.26;86.80
79491;SHT31;73788;53.048;18.472;2023-11-21T09:50:51;1.25;86.80
79491;SHT31;73788;53.048;18.472;2023-11-21T09:53:21;1.34;86.80
79491;SHT31;73788;53.048;18.472;2023-11-21T09:55:51;1.37;86.80
79491;SHT31;73788;53.048;18.472;2023-11-21T09:58:20;1.35;86.78
79491;SHT31;73788;53.048;18.472;2023-11-21T10:00:55;1.53;86.80
79491;SHT31;73788;53.048;18.472;2023-11-21T10:03:26;1.70;86.80
79491;SHT31;73788;53.048;18.472;2023-11-21T10:05:53;1.60;86.77
79491;SHT31;73788;53.048;18.472;2023-11-21T10:08:27;1.51;86.75
79491;SHT31;73788;53.048;18.472;2023-11-21T10:10:56;1.47;86.72
79491;SHT31;73788;53.048;18.472;2023-11-21T10:13:23;1.51;86.74
79491;SHT31;73788;53.048;18.472;2023-11-21T10:15:53;1.45;86.70
79491;SHT31;73788;53.048;18.472;2023-11-21T10:18:21;1.48;86.71
79491;SHT31;73788;53.048;18.472;2023-11-21T10:20:51;1.48;86.70
79491;SHT31;73788;53.048;18.472;2023-11-21T10:23:19;1.50;86.70
79491;SHT31;73788;53.048;18.472;2023-11-21T10:25:50;1.54;86.70
79491;SHT31;73788;53.048;18.472;2023-11-21T10:28:19;1.46;86.68
79491;SHT31;73788;53.048;18.472;2023-11-21T10:30:47;1.35;86.63
79491;SHT31;73788;53.048;18.472;2023-11-21T10:33:14;1.29;86.61
79491;SHT31;73788;53.048;18.472;2023-11-21T10:38:08;1.26;86.60
79491;SHT31;73788;53.048;18.472;2023-11-21T10:40:43;1.30;86.60
79491;SHT31;73788;53.048;18.472;2023-11-21T10:43:14;1.28;86.60
79491;SHT31;73788;53.048;18.472;2023-11-21T10:45:42;1.23;86.59
79491;SHT31;73788;53.048;18.472;2023-11-21T10:48:10;1.18;86.56
79491;SHT31;73788;53.048;18.472;2023-11-21T10:50:44;1.14;86.51
79491;SHT31;73788;53.048;18.472;2023-11-21T10:53:13;1.21;86.52
79491;SHT31;73788;53.048;18.472;2023-11-21T10:55:40;1.26;86.50
79491;SHT31;73788;53.048;18.472;2023-11-21T10:58:10;1.20;86.52
79491;SHT31;73788;53.048;18.472;2023-11-21T11:00:40;1.18;86.50
79491;SHT31;73788;53.048;18.472;2023-11-21T11:03:09;1.19;86.50
79491;SHT31;73788;53.048;18.472;2023-11-21T11:05:40;1.18;86.50
79491;SHT31;73788;53.048;18.472;2023-11-21T11:08:17;1.23;86.48
79491;SHT31;73788;53.048;18.472;2023-11-21T11:10:52;1.19;86.46
79491;SHT31;73788;53.048;18.472;2023-11-21T11:13:20;1.12;86.43
79491;SHT31;73788;53.048;18.472;2023-11-21T11:15:49;1.08;86.40
79491;SHT31;73788;53.048;18.472;2023-11-21T11:18:17;1.06;86.40
79491;SHT31;73788;53.048;18.472;2023-11-21T11:20:47;1.13;86.40
79491;SHT31;73788;53.048;18.472;2023-11-21T11:26:32;1.11;86.39
79491;SHT31;73788;53.048;18.472;2023-11-21T11:35:01;1.23;86.31
79491;SHT31;73788;53.048;18.472;2023-11-21T11:37:36;1.19;86.30
79491;SHT31;73788;53.048;18.472;2023-11-21T11:40:06;1.14;86.30
79491;SHT31;73788;53.048;18.472;2023-11-21T11:42:34;1.09;86.30
79491;SHT31;73788;53.048;18.472;2023-11-21T11:45:01;1.05;86.28
79491;SHT31;73788;53.048;18.472;2023-11-21T11:47:31;1.15;86.26
79491;SHT31;73788;53.048;18.472;2023-11-21T11:50:05;1.19;86.24
79491;SHT31;73788;53.048;18.472;2023-11-21T11:52:47;1.16;86.23
79491;SHT31;73788;53.048;18.472;2023-11-21T11:55:21;1.14;86.20
79491;SHT31;73788;53.048;18.472;2023-11-21T11:57:53;1.12;86.20
79491;SHT31;73788;53.048;18.472;2023-11-21T12:02:57;1.21;86.18
79491;SHT31;73788;53.048;18.472;2023-11-21T12:05:33;1.14;86.17
79491;SHT31;73788;53.048;18.472;2023-11-21T12:08:05;1.07;86.10
79491;SHT31;73788;53.048;18.472;2023-11-21T12:10:34;1.08;86.10
79491;SHT31;73788;53.048;18.472;2023-11-21T12:13:06;1.16;86.10
79491;SHT31;73788;53.048;18.472;2023-11-21T12:15:36;1.16;86.10
79491;SHT31;73788;53.048;18.472;2023-11-21T12:18:04;1.13;86.10
79491;SHT31;73788;53.048;18.472;2023-11-21T12:20:32;1.14;86.07
79491;SHT31;73788;53.048;18.472;2023-11-21T12:23:05;1.15;86.08
79491;SHT31;73788;53.048;18.472;2023-11-21T12:25:32;1.15;86.00
79491;SHT31;73788;53.048;18.472;2023-11-21T12:28:00;1.13;86.00
79491;SHT31;73788;53.048;18.472;2023-11-21T12:30:29;1.05;86.00
79491;SHT31;73788;53.048;18.472;2023-11-21T12:33:02;1.05;86.00
79491;SHT31;73788;53.048;18.472;2023-11-21T12:35:31;1.07;85.97
79491;SHT31;73788;53.048;18.472;2023-11-21T12:38:03;1.01;85.95
79491;SHT31;73788;53.048;18.472;2023-11-21T12:40:35;0.99;85.91
79491;SHT31;73788;53.048;18.472;2023-11-21T12:43:03;0.96;85.90
79491;SHT31;73788;53.048;18.472;2023-11-21T12:45:34;1.01;85.90
79491;SHT31;73788;53.048;18.472;2023-11-21T12:48:02;1.00;85.90
79491;SHT31;73788;53.048;18.472;2023-11-21T12:50:35;0.98;85.88
79491;SHT31;73788;53.048;18.472;2023-11-21T12:53:04;0.93;85.83
79491;SHT31;73788;53.048;18.472;2023-11-21T12:55:32;0.97;85.80
79491;SHT31;73788;53.048;18.472;2023-11-21T12:58:07;1.04;85.80
79491;SHT31;73788;53.048;18.472;2023-11-21T13:00:36;1.00;85.80
79491;SHT31;73788;53.048;18.472;2023-11-21T13:03:14;0.95;85.80
79491;SHT31;73788;53.048;18.472;2023-11-21T13:05:45;0.90;85.75
79491;SHT31;73788;53.048;18.472;2023-11-21T13:08:21;0.90;85.72
79491;SHT31;73788;53.048;18.472;2023-11-21T13:10:51;0.94;85.71
79491;SHT31;73788;53.048;18.472;2023-11-21T13:13:21;0.94;85.70
79491;SHT31;73788;53.048;18.472;2023-11-21T13:15:52;0.91;85.70
79491;SHT31;73788;53.048;18.472;2023-11-21T13:18:23;0.87;85.70
79491;SHT31;73788;53.048;18.472;2023-11-21T13:20:53;0.88;85.67
79491;SHT31;73788;53.048;18.472;2023-11-21T13:23:25;0.95;85.63
79491;SHT31;73788;53.048;18.472;2023-11-21T13:25:53;0.90;85.62
79491;SHT31;73788;53.048;18.472;2023-11-21T13:28:21;0.86;85.60
79491;SHT31;73788;53.048;18.472;2023-11-21T13:30:50;0.88;85.60
79491;SHT31;73788;53.048;18.472;2023-11-21T13:33:19;0.94;85.57
79491;SHT31;73788;53.048;18.472;2023-11-21T13:35:53;0.93;85.54
79491;SHT31;73788;53.048;18.472;2023-11-21T13:38:22;0.89;85.50
79491;SHT31;73788;53.048;18.472;2023-11-21T13:40:51;0.85;85.50
79491;SHT31;73788;53.048;18.472;2023-11-21T13:43:21;0.89;85.50
79491;SHT31;73788;53.048;18.472;2023-11-21T13:45:53;0.98;85.50
79491;SHT31;73788;53.048;18.472;2023-11-21T13:48:39;0.94;85.46
79491;SHT31;73788;53.048;18.472;2023-11-21T13:51:15;0.92;85.43
79491;SHT31;73788;53.048;18.472;2023-11-21T13:53:45;0.88;85.40
79491;SHT31;73788;53.048;18.472;2023-11-21T13:56:16;0.87;85.40
79491;SHT31;73788;53.048;18.472;2023-11-21T13:58:48;0.93;85.40
79491;SHT31;73788;53.048;18.472;2023-11-21T14:01:20;0.88;85.37
79491;SHT31;73788;53.048;18.472;2023-11-21T14:04:00;0.82;85.34
79491;SHT31;73788;53.048;18.472;2023-11-21T14:06:43;0.83;85.30
79491;SHT31;73788;53.048;18.472;2023-11-21T14:09:15;0.90;85.30
79491;SHT31;73788;53.048;18.472;2023-11-21T14:11:55;0.85;85.29
79491;SHT31;73788;53.048;18.472;2023-11-21T14:14:24;0.80;85.26
79491;SHT31;73788;53.048;18.472;2023-11-21T14:16:56;0.76;85.21
79491;SHT31;73788;53.048;18.472;2023-11-21T14:19:26;0.80;85.20
79491;SHT31;73788;53.048;18.472;2023-11-21T14:21:58;0.81;85.20
79491;SHT31;73788;53.048;18.472;2023-11-21T14:24:26;0.75;85.20
79491;SHT31;73788;53.048;18.472;2023-11-21T14:26:53;0.72;85.19
79491;SHT31;73788;53.048;18.472;2023-11-21T14:29:21;0.70;85.12
79491;SHT31;73788;53.048;18.472;2023-11-21T14:31:49;0.75;85.10
79491;SHT31;73788;53.048;18.472;2023-11-21T14:34:17;0.73;85.10
79491;SHT31;73788;53.048;18.472;2023-11-21T14:36:44;0.68;85.09
79491;SHT31;73788;53.048;18.472;2023-11-21T14:39:12;0.63;85.07
79491;SHT31;73788;53.048;18.472;2023-11-21T14:41:54;0.66;85.01
79491;SHT31;73788;53.048;18.472;2023-11-21T14:44:27;0.70;85.00
79491;SHT31;73788;53.048;18.472;2023-11-21T14:46:59;0.64;85.00
79491;SHT31;73788;53.048;18.472;2023-11-21T14:49:27;0.60;84.99
79491;SHT31;73788;53.048;18.472;2023-11-21T14:52:02;0.60;84.93
79491;SHT31;73788;53.048;18.472;2023-11-21T14:54:49;0.64;84.92
79491;SHT31;73788;53.048;18.472;2023-11-21T14:57:26;0.60;84.90
79491;SHT31;73788;53.048;18.472;2023-11-21T14:59:53;0.57;84.90
79491;SHT31;73788;53.048;18.472;2023-11-21T15:02:24;0.55;84.87
79491;SHT31;73788;53.048;18.472;2023-11-21T15:05:10;0.61;84.85
79491;SHT31;73788;53.048;18.472;2023-11-21T15:07:42;0.62;84.81
79491;SHT31;73788;53.048;18.472;2023-11-21T15:10:11;0.55;84.80
79491;SHT31;73788;53.048;18.472;2023-11-21T15:12:41;0.52;84.80
79491;SHT31;73788;53.048;18.472;2023-11-21T15:15:10;0.50;84.79
79491;SHT31;73788;53.048;18.472;2023-11-21T15:17:37;0.56;84.71
79491;SHT31;73788;53.048;18.472;2023-11-21T15:20:06;0.60;84.72
79491;SHT31;73788;53.048;18.472;2023-11-21T15:22:35;0.55;84.70
79491;SHT31;73788;53.048;18.472;2023-11-21T15:25:02;0.51;84.70
79491;SHT31;73788;53.048;18.472;2023-11-21T15:27:36;0.49;84.68
79491;SHT31;73788;53.048;18.472;2023-11-21T15:30:03;0.55;84.69
79491;SHT31;73788;53.048;18.472;2023-11-21T15:32:32;0.55;84.61
79491;SHT31;73788;53.048;18.472;2023-11-21T15:34:59;0.51;84.60
79491;SHT31;73788;53.048;18.472;2023-11-21T15:37:26;0.46;84.60
79491;SHT31;73788;53.048;18.472;2023-11-21T15:39:55;0.48;84.59
79491;SHT31;73788;53.048;18.472;2023-11-21T15:42:22;0.51;84.60
79491;SHT31;73788;53.048;18.472;2023-11-21T15:44:50;0.48;84.54
79491;SHT31;73788;53.048;18.472;2023-11-21T15:47:17;0.44;84.50
79491;SHT31;73788;53.048;18.472;2023-11-21T15:49:45;0.43;84.50
79491;SHT31;73788;53.048;18.472;2023-11-21T15:52:12;0.46;84.50